Sacramento, California
Traffic Map
Current Weather Conditions
Sacramento, California
Clear
Clear
10°
Feels Like: 10°
Wind Chill: 10° Ceiling: Unl
Heat Index: 10° Visibility: 10mi
Dew Point: Wind: 0mph
Humidity: 80% Direction: ° ()
Pressure: 30.03in Gusts: 0mph
Raw Report DataKSAC 261053Z AUTO 00000KT 10SM CLR 10/07 A3003 RMK AO2 SLP167 T01000067
Traffic Incident Summary
Active as of:
Severity:
Category:
InformationThere was an issue retrieving the traffic information for this location. Please try a different location or try again shortly.
Advertisements
Track Severe Weather on mobile